Vauxhall, New Jersey
Current Conditions -  °F | °C
As of 12:51 PM on Saturday 22 Nov 2014 (Local Time) from KEWR Reporting Station
Scattered Clouds Scattered Clouds  
Wind Chill:   Ceiling: Unl
Heat Index:   Visibility: 10mi
Dew Point: -11°   Wind: 12mph
Humidity: 29%   Direction: 210°SSW
Pressure: 30.33"   Gusts: NA
Location:  40.73°N, 74.28°W
Report Text: KEWR 221751Z 21010KT 10SM SCT250 06/M11 A3033 RMK AO2 PRESFR SLP271 10056 21050 T00561111 58045
Loading
Personal Weather Stations






























Interactive Weather Map New forecast layout! Learn more

10-Day Weather Forecast

Advertisements
Track Severe Weather on mobile